Time;durP1;ratioP1;P1;durP2;ratioP2;P2;SDS_P1;SDS_P2;PMS_P1;PMS_P2;Temp;Humidity;BMP_temperature;BMP_pressure;BME280_temperature;BME280_humidity;BME280_pressure;Samples;Min_cycle;Max_cycle;Signal;HPM_P1;HPM_P2
2022/09/11 00:00:27;;;;;;;5.95;2.25;;;;;;;14.16;100.00;98764.66;5085707;28;20067;-68
2022/09/11 00:02:52;;;;;;;6.50;2.00;;;;;;;14.03;100.00;98726.72;5085752;28;20066;-68
2022/09/11 00:05:17;;;;;;;3.50;1.85;;;;;;;14.20;100.00;98757.72;5080382;28;20023;-68
2022/09/11 00:07:42;;;;;;;7.25;1.48;;;;;;;14.25;100.00;98760.59;5080670;28;20107;-68
2022/09/11 00:10:09;;;;;;;4.20;1.80;;;;;;;14.27;100.00;98744.00;5080210;28;20029;-68
2022/09/11 00:12:34;;;;;;;5.57;2.05;;;;;;;14.29;100.00;98750.06;5080498;28;20028;-68
2022/09/11 00:14:59;;;;;;;5.50;2.58;;;;;;;14.29;100.00;98744.63;5075844;28;20039;-68
2022/09/11 00:17:24;;;;;;;4.55;1.60;;;;;;;14.34;100.00;98752.94;5085103;28;20026;-68
2022/09/11 00:19:50;;;;;;;5.28;1.45;;;;;;;14.34;100.00;98742.03;5083403;28;20161;-68
2022/09/11 00:22:15;;;;;;;4.63;1.70;;;;;;;14.36;100.00;98733.66;5074762;28;20028;-69
2022/09/11 00:24:40;;;;;;;7.18;2.17;;;;;;;14.38;100.00;98732.38;5081307;28;20024;-68
2022/09/11 00:27:06;;;;;;;2.97;1.75;;;;;;;14.26;100.00;98715.16;5083897;28;20039;-68
2022/09/11 00:29:32;;;;;;;2.33;1.50;;;;;;;14.41;100.00;98741.97;5086445;28;20016;-69
2022/09/11 00:31:57;;;;;;;6.15;1.70;;;;;;;14.38;100.00;98728.78;5086927;28;20520;-69
2022/09/11 00:34:23;;;;;;;6.22;1.58;;;;;;;14.25;100.00;98708.88;5080664;28;20040;-69
2022/09/11 00:36:48;;;;;;;4.25;1.88;;;;;;;14.37;100.00;98743.47;5084094;28;20575;-68
2022/09/11 00:39:13;;;;;;;4.95;2.10;;;;;;;14.33;100.00;98734.94;5087509;28;20032;-68
2022/09/11 00:41:43;;;;;;;2.78;2.03;;;;;;;14.31;100.00;98749.84;5089475;28;20481;-69
2022/09/11 00:44:15;;;;;;;4.65;1.75;;;;;;;14.29;100.00;98743.78;5097348;28;20046;-68
2022/09/11 00:46:45;;;;;;;2.55;1.70;;;;;;;14.31;100.00;98728.91;5111640;28;20068;-68
2022/09/11 00:49:22;;;;;;;8.23;2.28;;;;;;;14.36;100.00;98747.28;5082317;28;20367;-69
2022/09/11 00:51:53;;;;;;;3.60;1.92;;;;;;;14.34;100.00;98742.03;5082866;28;20028;-69
2022/09/11 00:54:25;;;;;;;6.20;2.10;;;;;;;14.36;100.00;98744.53;5091416;28;20073;-68
2022/09/11 00:56:52;;;;;;;4.60;1.60;;;;;;;14.25;100.00;98714.31;5092410;28;20077;-68
2022/09/11 00:59:24;;;;;;;3.83;1.70;;;;;;;14.34;100.00;98731.16;5094478;28;20028;-68
2022/09/11 01:01:49;;;;;;;5.53;1.85;;;;;;;14.33;100.00;98734.94;5063809;28;20039;-69
2022/09/11 01:04:15;;;;;;;8.60;1.90;;;;;;;14.30;100.00;98731.84;5084298;28;20024;-69
2022/09/11 01:06:40;;;;;;;7.43;1.90;;;;;;;14.33;100.00;98734.09;5088181;28;20401;-69
2022/09/11 01:09:05;;;;;;;7.38;1.90;;;;;;;14.31;100.00;98747.94;5078611;28;20024;-69
2022/09/11 01:11:49;;;;;;;6.80;2.28;;;;;;;14.33;100.00;98751.28;5089285;28;20032;-69
2022/09/11 01:14:21;;;;;;;4.57;1.90;;;;;;;14.33;100.00;98740.41;5089479;28;20020;-69
2022/09/11 01:17:06;;;;;;;3.10;1.75;;;;;;;14.32;100.00;98732.44;5092219;28;20508;-69
2022/09/11 01:19:36;;;;;;;5.05;1.98;;;;;;;14.37;100.00;98729.88;5084642;28;20629;-69
2022/09/11 01:22:16;;;;;;;4.00;1.77;;;;;;;14.34;100.00;98731.16;5084972;28;20032;-69
2022/09/11 01:24:53;;;;;;;5.88;1.67;;;;;;;14.34;100.00;98722.16;5088554;28;20432;-69
2022/09/11 01:27:42;;;;;;;3.45;1.70;;;;;;;14.33;100.00;98725.94;5083595;28;20452;-69
2022/09/11 01:30:19;;;;;;;5.20;2.17;;;;;;;14.30;100.00;98727.22;5081978;28;20028;-69
2022/09/11 01:32:58;;;;;;;3.60;2.03;;;;;;;14.29;100.00;98732.91;5084020;28;20114;-69
2022/09/11 01:35:45;;;;;;;7.47;2.08;;;;;;;14.37;100.00;98735.31;5081461;28;20015;-69
2022/09/11 01:38:35;;;;;;;6.57;1.98;;;;;;;14.43;100.00;98740.66;5084667;28;20127;-69
2022/09/11 01:41:08;;;;;;;5.30;2.15;;;;;;;14.48;100.00;98748.13;5077730;28;20028;-69
2022/09/11 01:43:41;;;;;;;5.93;2.55;;;;;;;14.51;100.00;98747.66;5087337;28;20070;-69
2022/09/11 01:46:07;;;;;;;5.38;2.10;;;;;;;14.52;100.00;98753.97;5092025;28;20024;-69
2022/09/11 01:48:42;;;;;;;6.15;1.98;;;;;;;14.53;100.00;98750.19;5084873;28;20031;-70
2022/09/11 01:51:15;;;;;;;6.20;2.05;;;;;;;14.40;100.00;98729.41;5087954;28;20115;-69
2022/09/11 01:53:44;;;;;;;6.47;2.45;;;;;;;14.47;100.00;98736.41;5088878;28;20035;-69
2022/09/11 01:56:17;;;;;;;6.55;2.60;;;;;;;14.54;100.00;98741.81;5088012;28;20070;-69
2022/09/11 01:58:45;;;;;;;9.45;2.63;;;;;;;14.55;100.00;98746.19;5084663;28;20035;-69
2022/09/11 02:01:21;;;;;;;8.85;2.10;;;;;;;14.57;100.00;98759.59;5086457;28;20444;-69
2022/09/11 02:04:04;;;;;;;5.32;2.03;;;;;;;14.61;100.00;98745.25;5088054;28;20027;-69
2022/09/11 02:07:04;;;;;;;11.55;2.20;;;;;;;14.59;100.00;98757.44;5080763;28;20043;-69
2022/09/11 02:09:45;;;;;;;5.35;2.60;;;;;;;14.59;100.00;98736.50;5056663;28;20075;-69
2022/09/11 02:12:15;;;;;;;5.25;2.08;;;;;;;14.62;100.00;98749.66;5087090;28;20034;-69
2022/09/11 02:14:43;;;;;;;4.90;2.50;;;;;;;14.49;100.00;98717.16;5085607;28;20039;-69
2022/09/11 02:17:36;;;;;;;8.57;3.25;;;;;;;14.59;100.00;98744.69;5089550;28;20051;-69
2022/09/11 02:20:02;;;;;;;4.68;2.35;;;;;;;14.42;100.00;98733.56;5068364;28;20053;-69
2022/09/11 02:22:29;;;;;;;7.97;2.70;;;;;;;14.44;100.00;98736.88;5080354;28;20036;-70
2022/09/11 02:24:55;;;;;;;6.65;2.55;;;;;;;14.59;100.00;98760.16;5075032;28;20028;-70
2022/09/11 02:27:23;;;;;;;5.40;2.45;;;;;;;14.63;100.00;98764.94;5089367;28;22078;-70
2022/09/11 02:29:49;;;;;;;4.90;2.58;;;;;;;14.45;100.00;98733.09;5087790;28;20036;-70
2022/09/11 02:32:17;;;;;;;4.50;2.70;;;;;;;14.63;100.00;98759.47;5094111;28;20028;-70
2022/09/11 02:34:45;;;;;;;5.35;2.47;;;;;;;14.65;100.00;98760.09;5095306;28;20028;-70
2022/09/11 02:37:13;;;;;;;9.27;3.10;;;;;;;14.64;100.00;98755.69;5075947;28;20394;-70
2022/09/11 02:39:54;;;;;;;8.37;3.03;;;;;;;14.67;100.00;98760.69;5090412;28;20035;-70
2022/09/11 02:42:40;;;;;;;3.13;2.50;;;;;;;14.72;100.00;98770.03;5085664;28;20028;-69
2022/09/11 02:45:46;;;;;;;3.95;2.45;;;;;;;14.66;100.00;98764.47;5089405;28;20032;-70
2022/09/11 02:48:30;;;;;;;5.35;2.78;;;;;;;14.64;100.00;98763.84;5091415;28;20151;-69
2022/09/11 02:51:14;;;;;;;6.55;2.65;;;;;;;14.66;100.00;98750.84;5090043;28;20028;-68
2022/09/11 02:54:00;;;;;;;5.75;3.15;;;;;;;14.69;100.00;98776.78;5092642;28;20028;-69
2022/09/11 02:56:31;;;;;;;4.55;2.45;;;;;;;14.69;100.00;98768.63;5097839;28;20024;-68
2022/09/11 02:59:04;;;;;;;6.95;2.63;;;;;;;14.68;100.00;98758.78;5095849;28;20615;-69
2022/09/11 03:01:30;;;;;;;8.75;3.05;;;;;;;14.74;100.00;98754.31;5092124;28;20033;-68
2022/09/11 03:03:56;;;;;;;7.97;3.20;;;;;;;14.75;100.00;98764.13;5074596;28;20486;-69
2022/09/11 03:06:24;;;;;;;6.60;2.67;;;;;;;14.73;100.00;98763.56;5091293;28;20103;-69
2022/09/11 03:08:50;;;;;;;4.00;2.97;;;;;;;14.71;100.00;98773.84;5088643;28;20032;-69
2022/09/11 03:11:16;;;;;;;5.90;2.55;;;;;;;14.62;100.00;98755.09;5080330;28;20034;-69
2022/09/11 03:13:42;;;;;;;4.80;2.78;;;;;;;14.73;100.00;98777.16;5085274;28;20051;-69
2022/09/11 03:16:08;;;;;;;4.38;2.60;;;;;;;14.77;100.00;98772.91;5070557;28;20028;-69
2022/09/11 03:18:34;;;;;;;5.45;2.78;;;;;;;14.77;100.00;98779.19;5085880;28;20480;-70
2022/09/11 03:21:00;;;;;;;7.97;2.58;;;;;;;14.78;100.00;98780.84;5083188;28;20028;-69
2022/09/11 03:23:26;;;;;;;7.72;3.00;;;;;;;14.82;100.00;98781.22;5089516;28;20023;-69
2022/09/11 03:25:51;;;;;;;5.32;2.85;;;;;;;14.61;100.00;98750.69;5089879;28;20623;-69
2022/09/11 03:28:17;;;;;;;9.15;3.13;;;;;;;14.76;100.00;98773.97;5080561;28;20026;-69
2022/09/11 03:30:42;;;;;;;7.75;2.90;;;;;;;14.73;100.00;98777.16;5088018;28;20044;-69
2022/09/11 03:33:08;;;;;;;5.50;3.10;;;;;;;14.74;100.00;98767.94;5067535;28;20036;-69
2022/09/11 03:35:34;;;;;;;7.90;3.05;;;;;;;14.78;100.00;98769.13;5081251;28;20036;-69
2022/09/11 03:37:59;;;;;;;7.47;3.08;;;;;;;14.66;100.00;98750.84;5082827;28;20487;-69
2022/09/11 03:40:25;;;;;;;10.63;3.65;;;;;;;14.62;100.00;98755.09;5084395;28;20032;-69
2022/09/11 03:42:51;;;;;;;4.47;2.88;;;;;;;14.75;100.00;98775.03;5087096;28;20020;-70
2022/09/11 03:45:17;;;;;;;5.50;3.00;;;;;;;14.75;100.00;98775.03;5065725;28;20070;-69
2022/09/11 03:47:43;;;;;;;10.20;3.63;;;;;;;14.75;100.00;98773.16;5082559;28;20024;-69
2022/09/11 03:50:08;;;;;;;5.07;3.00;;;;;;;14.72;100.00;98779.03;5068191;28;20040;-69
2022/09/11 03:52:35;;;;;;;5.70;3.30;;;;;;;14.65;100.00;98770.97;5087569;28;20050;-69
2022/09/11 03:55:01;;;;;;;4.47;3.42;;;;;;;14.79;100.00;98792.56;5083593;28;20810;-69
2022/09/11 03:57:26;;;;;;;5.78;2.72;;;;;;;14.78;100.00;98793.66;5064504;28;20020;-69
2022/09/11 03:59:53;;;;;;;6.25;3.30;;;;;;;14.75;100.00;98788.63;5082780;28;20688;-69
2022/09/11 04:02:18;;;;;;;7.47;3.60;;;;;;;14.83;100.00;98799.25;5081683;28;20016;-69
2022/09/11 04:04:43;;;;;;;7.07;3.15;;;;;;;14.79;100.00;98792.56;5078075;28;20012;-69
2022/09/11 04:07:08;;;;;;;5.53;3.42;;;;;;;14.75;100.00;98786.78;5084873;28;20501;-69
2022/09/11 04:09:34;;;;;;;6.35;3.53;;;;;;;14.74;100.00;98787.00;5080752;28;20076;-69
2022/09/11 04:11:59;;;;;;;9.25;3.90;;;;;;;14.68;100.00;98796.91;5061421;28;20028;-69
2022/09/11 04:14:24;;;;;;;10.15;3.92;;;;;;;14.77;100.00;98800.16;5066478;28;20039;-69
2022/09/11 04:16:50;;;;;;;8.73;4.20;;;;;;;14.79;100.00;98800.75;5077674;28;20103;-69
2022/09/11 04:19:17;;;;;;;6.28;3.80;;;;;;;14.80;100.00;98803.25;5082217;28;20089;-69
2022/09/11 04:21:42;;;;;;;5.07;3.72;;;;;;;14.76;100.00;98796.59;5082636;28;20027;-69
2022/09/11 04:24:09;;;;;;;5.88;3.88;;;;;;;14.58;100.00;98767.50;5086421;28;20020;-69
2022/09/11 04:26:34;;;;;;;7.15;4.13;;;;;;;14.72;100.00;98797.28;5080786;28;20020;-69
2022/09/11 04:29:00;;;;;;;11.43;4.88;;;;;;;14.62;100.00;98786.97;5082908;28;20024;-69
2022/09/11 04:31:28;;;;;;;9.38;3.95;;;;;;;14.63;100.00;98777.72;5087248;28;20028;-69
2022/09/11 04:33:54;;;;;;;13.20;4.20;;;;;;;14.79;100.00;98804.28;5082621;28;20036;-69
2022/09/11 04:36:20;;;;;;;9.13;4.57;;;;;;;14.82;100.00;98814.72;5080477;28;20036;-70
2022/09/11 04:38:47;;;;;;;10.70;4.32;;;;;;;14.70;100.00;98800.25;5079544;28;20039;-69
2022/09/11 04:41:14;;;;;;;9.25;4.18;;;;;;;14.81;100.00;98817.69;5081978;28;20508;-69
2022/09/11 04:43:40;;;;;;;8.32;4.45;;;;;;;14.81;100.00;98817.69;5083916;28;20461;-69
2022/09/11 04:46:09;;;;;;;8.35;4.68;;;;;;;14.78;100.00;98813.53;5084870;28;20681;-69
2022/09/11 04:48:36;;;;;;;7.13;4.75;;;;;;;14.66;100.00;98794.41;5089018;28;20036;-69
2022/09/11 04:51:07;;;;;;;11.88;4.05;;;;;;;14.85;100.00;98829.78;5068033;28;20042;-70
2022/09/11 04:53:33;;;;;;;8.30;4.05;;;;;;;14.94;100.00;98827.59;5080675;28;20024;-72
2022/09/11 04:56:07;;;;;;;6.03;3.97;;;;;;;14.94;100.00;98833.03;5067564;28;20029;-69
2022/09/11 04:58:33;;;;;;;5.85;3.83;;;;;;;14.98;100.00;98843.22;5081173;28;20039;-70
2022/09/11 05:00:59;;;;;;;6.50;4.50;;;;;;;14.95;100.00;98840.94;5063476;28;20036;-69
2022/09/11 05:03:25;;;;;;;7.20;3.88;;;;;;;15.00;100.00;98843.81;5082390;28;20497;-69
2022/09/11 05:05:50;;;;;;;5.72;3.97;;;;;;;15.01;100.00;98845.50;5082421;28;20124;-69
2022/09/11 05:08:17;;;;;;;10.90;4.80;;;;;;;15.01;100.00;98847.38;5060680;28;20044;-69
2022/09/11 05:10:43;;;;;;;9.10;4.20;;;;;;;15.04;100.00;98846.94;5066341;28;20024;-69
2022/09/11 05:13:10;;;;;;;4.97;3.75;;;;;;;15.06;100.00;98848.38;5083141;28;20506;-69
2022/09/11 05:15:36;;;;;;;8.95;3.80;;;;;;;15.11;100.00;98856.66;5086928;28;20035;-70
2022/09/11 05:18:03;;;;;;;7.93;4.05;;;;;;;15.12;100.00;98857.50;5084582;28;20032;-69
2022/09/11 05:20:29;;;;;;;6.50;4.28;;;;;;;15.15;100.00;98858.94;5087606;28;20027;-69
2022/09/11 05:22:55;;;;;;;4.85;4.00;;;;;;;15.03;100.00;98846.06;5071319;28;20074;-70
2022/09/11 05:25:21;;;;;;;8.32;3.90;;;;;;;15.11;100.00;98862.09;5086240;28;20025;-70
2022/09/11 05:27:46;;;;;;;9.15;4.53;;;;;;;15.11;100.00;98861.28;5084334;28;20039;-69
2022/09/11 05:30:12;;;;;;;6.40;4.57;;;;;;;15.16;100.00;98860.59;5087334;28;20035;-70
2022/09/11 05:32:38;;;;;;;9.00;4.43;;;;;;;15.15;100.00;98867.94;5087657;28;20031;-70
2022/09/11 05:35:03;;;;;;;8.40;4.05;;;;;;;15.07;100.00;98860.09;5080082;28;20032;-70
2022/09/11 05:37:28;;;;;;;7.97;4.35;;;;;;;15.15;100.00;98875.28;5087402;28;20032;-70
2022/09/11 05:39:54;;;;;;;8.90;4.53;;;;;;;15.18;100.00;98878.38;5084417;28;20081;-70
2022/09/11 05:42:20;;;;;;;9.80;4.57;;;;;;;15.24;100.00;98874.72;5087568;28;20370;-71
2022/09/11 05:44:46;;;;;;;5.93;4.70;;;;;;;15.19;100.00;98888.19;5084085;28;20035;-71
2022/09/11 05:47:13;;;;;;;6.32;4.20;;;;;;;15.21;100.00;98883.34;5084804;28;20127;-71
2022/09/11 05:49:38;;;;;;;9.60;4.75;;;;;;;15.11;100.00;98878.44;5086140;28;20024;-71
2022/09/11 05:52:03;;;;;;;9.60;5.20;;;;;;;15.12;100.00;98871.94;5085550;28;20437;-70
2022/09/11 05:54:29;;;;;;;5.88;4.00;;;;;;;15.26;100.00;98891.66;5083495;28;20129;-70
2022/09/11 05:56:54;;;;;;;7.72;4.45;;;;;;;15.25;100.00;98905.53;5073669;28;20496;-70
2022/09/11 05:59:19;;;;;;;6.40;4.28;;;;;;;15.23;100.00;98883.97;5082310;28;20032;-70
2022/09/11 06:01:46;;;;;;;4.72;3.90;;;;;;;15.35;100.00;98900.34;5087972;28;20038;-73
2022/09/11 06:04:12;;;;;;;9.52;4.38;;;;;;;15.26;100.00;98885.38;5079973;28;20024;-76
2022/09/11 06:06:38;;;;;;;8.55;4.28;;;;;;;15.22;100.00;98900.53;5082026;28;20497;-74
2022/09/11 06:09:06;;;;;;;6.88;4.70;;;;;;;15.19;100.00;98895.53;5085670;28;20503;-74
2022/09/11 06:11:32;;;;;;;7.35;4.38;;;;;;;15.38;100.00;98920.84;5084268;28;20158;-75
2022/09/11 06:13:58;;;;;;;7.55;4.80;;;;;;;15.24;100.00;98909.31;5078153;28;20024;-77
2022/09/11 06:16:24;;;;;;;7.90;4.65;;;;;;;15.20;100.00;98916.31;5069973;28;20031;-75
2022/09/11 06:18:51;;;;;;;9.30;4.53;;;;;;;15.30;100.00;98936.50;5071521;28;20038;-72
2022/09/11 06:21:22;;;;;;;9.63;4.97;;;;;;;15.28;100.00;98933.16;5088061;28;20086;-73
2022/09/11 06:23:49;;;;;;;9.48;4.43;;;;;;;15.40;100.00;98935.91;5082869;28;20021;-73
2022/09/11 06:26:16;;;;;;;7.97;4.82;;;;;;;15.38;100.00;98940.78;5067995;28;20543;-75
2022/09/11 06:28:42;;;;;;;7.70;5.38;;;;;;;15.38;100.00;98938.06;5084535;28;20032;-73
2022/09/11 06:31:14;;;;;;;10.27;4.65;;;;;;;15.38;100.00;98927.16;5085647;28;20028;-75
2022/09/11 06:33:40;;;;;;;7.85;4.75;;;;;;;15.37;100.00;98925.47;5072781;28;20115;-73
2022/09/11 06:36:09;;;;;;;6.72;4.63;;;;;;;15.57;100.00;98945.13;5072660;28;20628;-74
2022/09/11 06:38:34;;;;;;;;;;;;;;;15.61;100.00;98950.94;5070619;28;20032;-77
2022/09/11 06:41:04;;;;;;;8.98;4.75;;;;;;;15.57;100.00;98941.56;5086176;28;19912;-75
2022/09/11 06:43:31;;;;;;;6.63;4.47;;;;;;;15.58;100.00;98926.84;5099813;28;20107;-75
2022/09/11 06:46:14;;;;;;;8.45;5.05;;;;;;;15.81;100.00;98953.41;5068369;28;20020;-74
2022/09/11 06:48:43;;;;;;;9.98;4.82;;;;;;;16.06;100.00;98950.50;5091096;28;20086;-73
2022/09/11 06:51:11;;;;;;;5.55;4.60;;;;;;;16.07;100.00;98924.84;5086896;28;20043;-75
2022/09/11 06:53:39;;;;;;;7.60;5.03;;;;;;;16.12;100.00;98924.16;5070440;28;20540;-68
2022/09/11 06:56:05;;;;;;;8.32;4.82;;;;;;;16.28;100.00;98933.53;5091289;28;20093;-75
2022/09/11 06:58:31;;;;;;;7.75;4.72;;;;;;;16.51;100.00;98951.81;5088750;28;20027;-74
2022/09/11 07:01:04;;;;;;;9.80;4.80;;;;;;;16.62;100.00;98950.97;5082192;28;20373;-74
2022/09/11 07:03:30;;;;;;;6.32;4.30;;;;;;;16.74;100.00;98940.88;5086135;28;20019;-74
2022/09/11 07:05:55;;;;;;;8.00;4.90;;;;;;;16.86;100.00;98944.41;5082763;28;20030;-77
2022/09/11 07:08:21;;;;;;;6.32;4.18;;;;;;;16.97;100.00;98936.44;5090795;28;20467;-77
2022/09/11 07:10:46;;;;;;;7.15;4.75;;;;;;;16.70;100.00;98898.69;5073750;28;20024;-76
2022/09/11 07:13:15;;;;;;;5.07;4.28;;;;;;;16.71;100.00;98903.06;5093197;28;20036;-74
2022/09/11 07:16:09;;;;;;;9.05;4.35;;;;;;;16.70;100.00;98909.63;5071354;28;20020;-74
2022/09/11 07:18:35;;;;;;;6.63;4.40;;;;;;;17.12;100.00;98961.34;5085485;28;20062;-73
2022/09/11 07:21:15;;;;;;;6.35;4.07;;;;;;;17.00;100.00;98923.13;5074506;28;20405;-75
2022/09/11 07:23:48;;;;;;;8.55;4.38;;;;;;;17.32;100.00;98958.22;5077462;28;20459;-74
2022/09/11 07:26:26;;;;;;;4.78;4.13;;;;;;;17.35;100.00;98976.03;5087611;28;20031;-75
2022/09/11 07:28:58;;;;;;;6.18;4.03;;;;;;;17.27;100.00;98938.97;5099199;28;20032;-68
2022/09/11 07:31:29;;;;;;;5.45;4.05;;;;;;;17.36;100.00;98959.38;5080268;28;20428;-67
2022/09/11 07:33:55;;;;;;;7.18;4.15;;;;;;;17.48;100.00;98956.59;5074109;28;20043;-75
2022/09/11 07:36:25;;;;;;;7.22;5.10;;;;;;;17.73;100.00;98976.19;5072758;28;20024;-78
2022/09/11 07:38:50;;;;;;;;;;;;;;;18.02;100.00;98976.19;5074783;28;20065;-78
2022/09/11 07:41:18;;;;;;;10.35;4.43;;;;;;;18.10;100.00;98972.22;5069213;28;19916;-78
2022/09/11 07:43:49;;;;;;;5.78;4.25;;;;;;;18.34;100.00;98975.66;5065636;28;20024;-76
2022/09/11 07:46:15;;;;;;;6.22;4.57;;;;;;;18.73;100.00;98982.00;5075766;28;20049;-77
2022/09/11 07:48:41;;;;;;;7.78;4.10;;;;;;;18.95;99.80;98975.72;5084785;28;20046;-78
2022/09/11 07:51:09;;;;;;;5.75;4.43;;;;;;;19.34;94.91;98973.75;5062029;28;20031;-68
2022/09/11 07:53:40;;;;;;;7.18;4.20;;;;;;;19.54;94.60;98989.59;5082472;28;20020;-68
2022/09/11 07:56:11;;;;;;;11.32;4.75;;;;;;;19.76;91.86;98992.34;5080725;28;20032;-69
2022/09/11 07:58:40;;;;;;;6.50;4.03;;;;;;;19.86;90.48;98992.47;5083127;28;20393;-72
2022/09/11 08:01:11;;;;;;;7.25;4.68;;;;;;;19.46;91.61;98990.88;5083622;28;22694;-69
2022/09/11 08:03:36;;;;;;;5.63;4.38;;;;;;;19.54;90.54;98997.00;5087729;28;20023;-69
2022/09/11 08:06:04;;;;;;;7.63;4.38;;;;;;;19.87;88.23;98994.13;5063353;28;20028;-69
2022/09/11 08:08:30;;;;;;;7.13;4.20;;;;;;;20.23;83.72;98991.69;5072333;28;20384;-69
2022/09/11 08:11:04;;;;;;;6.30;4.25;;;;;;;20.02;85.37;99000.84;5081240;28;20020;-69
2022/09/11 08:13:29;;;;;;;7.63;5.20;;;;;;;19.58;86.39;99006.41;5079360;28;20020;-69
2022/09/11 08:15:55;;;;;;;8.07;5.03;;;;;;;19.28;88.86;98999.44;5075956;28;20100;-69
2022/09/11 08:18:21;;;;;;;6.85;5.30;;;;;;;19.22;89.92;99008.72;5080828;28;20044;-70
2022/09/11 08:20:47;;;;;;;8.82;4.53;;;;;;;19.41;88.64;98979.88;5065267;28;20025;-75
2022/09/11 08:23:13;;;;;;;7.32;4.40;;;;;;;21.05;79.03;98996.97;5067304;28;20020;-76
2022/09/11 08:25:38;;;;;;;8.10;3.90;;;;;;;23.02;66.44;98976.59;5064767;28;20028;-75
2022/09/11 08:28:04;;;;;;;4.53;3.53;;;;;;;22.70;66.77;98988.78;5080456;28;20020;-76
2022/09/11 08:30:31;;;;;;;6.65;3.80;;;;;;;21.71;70.33;99007.44;5084040;28;20028;-76
2022/09/11 08:32:56;;;;;;;5.97;4.20;;;;;;;20.75;74.03;99010.28;5088594;28;20024;-75
2022/09/11 08:35:21;;;;;;;6.30;4.15;;;;;;;20.00;77.87;99016.75;5085625;28;20108;-74
2022/09/11 08:37:47;;;;;;;6.32;4.22;;;;;;;20.00;80.69;99003.84;5057271;28;20077;-76
2022/09/11 08:40:12;;;;;;;5.45;4.20;;;;;;;19.99;79.92;98987.63;5063075;28;21728;-76
2022/09/11 08:42:43;;;;;;;5.53;3.70;;;;;;;20.24;80.09;99015.31;5061692;28;20519;-72
2022/09/11 08:45:15;;;;;;;7.18;4.13;;;;;;;20.49;77.68;99022.16;5069661;28;20020;-76
2022/09/11 08:47:49;;;;;;;6.72;3.75;;;;;;;21.82;70.14;98995.31;5089970;28;20481;-77
2022/09/11 08:50:27;;;;;;;4.55;3.35;;;;;;;22.86;65.07;99009.69;5068598;28;20047;-75
2022/09/11 08:52:55;;;;;;;3.88;3.05;;;;;;;24.57;58.56;99017.69;5069750;28;20712;-69
2022/09/11 08:55:34;;;;;;;4.93;2.83;;;;;;;24.50;57.28;99011.69;5085157;28;20036;-70
2022/09/11 08:57:59;;;;;;;;;;;;;;;23.82;58.46;99013.25;5069340;28;20039;-67
2022/09/11 09:00:53;;;;;;;5.03;3.23;;;;;;;22.92;62.05;99019.63;5089364;28;19915;-68
2022/09/11 09:03:56;;;;;;;4.03;2.97;;;;;;;21.95;67.85;99022.34;5086016;28;20020;-67
2022/09/11 09:06:43;;;;;;;7.25;3.60;;;;;;;21.43;70.89;99023.28;5066856;28;20024;-75
2022/09/11 09:09:15;;;;;;;6.50;3.72;;;;;;;21.05;71.71;99024.47;5089933;28;20024;-75
2022/09/11 09:12:04;;;;;;;6.80;3.10;;;;;;;21.75;69.76;99006.63;5092273;28;20028;-75
2022/09/11 09:14:49;;;;;;;4.15;3.60;;;;;;;23.31;63.12;99026.44;5064748;28;20381;-74
2022/09/11 09:17:31;;;;;;;4.63;3.10;;;;;;;23.94;60.14;99021.19;5092161;28;20032;-74
2022/09/11 09:20:05;;;;;;;4.22;2.90;;;;;;;24.38;56.99;99022.25;5082741;28;20103;-76
2022/09/11 09:22:48;;;;;;;3.47;2.45;;;;;;;24.15;58.13;99034.88;5087662;28;20021;-77
2022/09/11 09:25:19;;;;;;;3.00;2.63;;;;;;;23.53;59.66;99020.56;5085064;28;20096;-74
2022/09/11 09:28:06;;;;;;;3.47;2.67;;;;;;;23.05;62.55;99006.38;5089037;28;20525;-71
2022/09/11 09:30:43;;;;;;;3.15;2.65;;;;;;;24.35;58.81;99023.66;5082680;28;20044;-71
2022/09/11 09:33:27;;;;;;;5.40;2.55;;;;;;;26.09;51.33;99009.84;5084109;28;20034;-71
2022/09/11 09:35:53;;;;;;;4.45;2.50;;;;;;;29.26;45.68;99017.81;5084623;28;20031;-71
2022/09/11 09:38:25;;;;;;;5.78;2.20;;;;;;;30.53;42.51;99025.47;5088190;28;20024;-71
2022/09/11 09:40:57;;;;;;;5.07;2.10;;;;;;;31.31;39.67;99018.81;5084989;28;20039;-71
2022/09/11 09:43:37;;;;;;;5.20;1.80;;;;;;;32.17;39.13;99025.09;5086158;28;20028;-71
2022/09/11 09:46:17;;;;;;;3.35;1.40;;;;;;;32.82;37.91;99003.09;5084973;28;20051;-71
2022/09/11 09:48:43;;;;;;;3.10;1.70;;;;;;;33.25;36.75;99004.56;5082568;28;20059;-72
2022/09/11 09:51:13;;;;;;;4.03;1.70;;;;;;;33.60;35.67;99021.81;5082131;28;20501;-70
2022/09/11 09:53:47;;;;;;;2.33;1.33;;;;;;;33.34;34.73;99025.75;5084926;28;20096;-70
2022/09/11 09:56:16;;;;;;;4.93;1.60;;;;;;;30.44;37.96;99011.50;5085341;28;20036;-70
2022/09/11 09:58:53;;;;;;;3.42;1.70;;;;;;;31.74;36.04;99020.63;5081194;28;20066;-70
2022/09/11 10:01:48;;;;;;;1.55;1.30;;;;;;;34.15;32.65;99020.31;5089589;28;20019;-70
2022/09/11 10:04:14;;;;;;;2.63;1.48;;;;;;;33.83;33.99;99019.31;5081984;28;20023;-70
2022/09/11 10:06:39;;;;;;;4.93;1.80;;;;;;;35.19;32.10;99012.00;5087607;28;20028;-71
2022/09/11 10:09:05;;;;;;;2.25;1.10;;;;;;;35.94;31.56;99013.81;5083334;28;20036;-70
2022/09/11 10:11:30;;;;;;;2.72;1.40;;;;;;;33.72;31.53;99002.16;5087376;28;20047;-70
2022/09/11 10:13:56;;;;;;;2.25;1.33;;;;;;;31.11;36.47;99009.22;5086992;28;20132;-70
2022/09/11 10:16:24;;;;;;;2.50;1.75;;;;;;;27.95;41.82;99021.66;5086174;28;20031;-70
2022/09/11 10:18:49;;;;;;;2.55;1.70;;;;;;;26.26;45.89;99004.59;5085932;28;20025;-70
2022/09/11 10:21:21;;;;;;;4.75;2.53;;;;;;;26.38;46.28;99017.97;5084375;28;20131;-70
2022/09/11 10:23:50;;;;;;;3.53;2.38;;;;;;;25.64;48.23;99021.25;5082434;28;21955;-71
2022/09/11 10:26:44;;;;;;;4.57;2.35;;;;;;;24.59;51.04;99023.78;5087022;28;20434;-71
2022/09/11 10:29:18;;;;;;;4.25;2.55;;;;;;;24.39;52.00;99029.44;5084176;28;20085;-71
2022/09/11 10:31:54;;;;;;;3.83;2.70;;;;;;;25.23;49.95;99015.41;5087112;28;20036;-70
2022/09/11 10:34:24;;;;;;;3.53;2.30;;;;;;;26.88;46.33;99010.78;5081222;28;20088;-70
2022/09/11 10:37:16;;;;;;;2.78;1.80;;;;;;;28.80;41.75;99012.69;5089086;28;20686;-71
2022/09/11 10:39:45;;;;;;;3.22;2.35;;;;;;;30.47;39.69;99007.22;5082226;28;20786;-70
2022/09/11 10:42:15;;;;;;;2.97;2.10;;;;;;;31.50;36.77;99002.50;5083555;28;20039;-71
2022/09/11 10:44:42;;;;;;;3.55;2.38;;;;;;;30.90;36.79;99009.13;5079597;28;20043;-71
2022/09/11 10:47:15;;;;;;;2.10;1.75;;;;;;;32.27;35.90;99000.31;5083289;28;20055;-71
2022/09/11 10:49:41;;;;;;;2.60;2.03;;;;;;;32.60;33.58;99012.72;5077748;28;20139;-69
2022/09/11 10:52:06;;;;;;;5.05;2.33;;;;;;;33.32;33.44;99011.25;5065599;28;20031;-70
2022/09/11 10:54:54;;;;;;;3.55;2.28;;;;;;;31.98;35.03;99014.38;5085705;28;20016;-70
2022/09/11 10:57:37;;;;;;;3.47;2.10;;;;;;;33.37;33.50;99004.59;5086433;28;20020;-70
2022/09/11 11:00:12;;;;;;;4.57;2.67;;;;;;;29.69;37.31;99006.03;5079542;28;20505;-69
2022/09/11 11:02:41;;;;;;;3.80;2.80;;;;;;;28.85;39.64;99009.75;5085672;28;20028;-70
2022/09/11 11:05:18;;;;;;;3.65;3.03;;;;;;;29.09;40.05;98991.88;5086575;28;20020;-70
2022/09/11 11:08:21;;;;;;;3.72;2.60;;;;;;;30.14;38.85;99000.16;5079398;28;20584;-70
2022/09/11 11:11:24;;;;;;;3.28;2.58;;;;;;;30.39;39.31;99005.25;5080889;28;20027;-70
2022/09/11 11:14:04;;;;;;;4.88;2.78;;;;;;;30.35;37.38;99005.91;5074333;28;20089;-69
2022/09/11 11:16:45;;;;;;;5.28;2.80;;;;;;;31.58;36.05;98996.03;5081778;28;22396;-70
2022/09/11 11:19:23;;;;;;;4.05;2.97;;;;;;;29.04;40.03;98995.59;5068555;28;20802;-70
2022/09/11 11:22:20;;;;;;;3.53;2.78;;;;;;;30.16;38.16;98997.06;5078746;28;20443;-70
2022/09/11 11:25:23;;;;;;;3.58;2.30;;;;;;;32.20;34.10;98990.81;5082433;28;20028;-70
2022/09/11 11:28:10;;;;;;;4.05;3.22;;;;;;;32.30;34.05;98994.03;5084565;28;20069;-70
2022/09/11 11:30:48;;;;;;;2.95;2.40;;;;;;;32.42;34.73;98989.63;5084795;28;20417;-70
2022/09/11 11:33:35;;;;;;;5.60;2.38;;;;;;;31.58;35.46;98987.63;5082519;28;20028;-70
2022/09/11 11:36:07;;;;;;;3.08;2.20;;;;;;;33.15;33.57;98994.66;5083117;28;20048;-70
2022/09/11 11:38:59;;;;;;;4.38;1.90;;;;;;;34.36;31.85;98983.63;5086527;28;20477;-70
2022/09/11 11:41:29;;;;;;;3.78;2.00;;;;;;;35.42;30.46;98969.97;5079950;28;20039;-70
2022/09/11 11:43:56;;;;;;;5.47;1.95;;;;;;;34.48;29.96;98994.81;5085109;28;20489;-70
2022/09/11 11:46:37;;;;;;;3.17;1.60;;;;;;;34.09;31.76;98973.19;5066403;28;20031;-72